sensor_id;sensor_type;location;lat;lon;timestamp;P1;durP1;ratioP1;P2;durP2;ratioP2
44110;SDS011;29774;52.664;5.074;2023-04-25T00:02:02;5.30;;;1.90;;
44110;SDS011;29774;52.664;5.074;2023-04-25T00:04:28;5.65;;;2.20;;
44110;SDS011;29774;52.664;5.074;2023-04-25T00:06:54;10.18;;;2.10;;
44110;SDS011;29774;52.664;5.074;2023-04-25T00:09:20;8.63;;;1.80;;
44110;SDS011;29774;52.664;5.074;2023-04-25T00:11:47;9.30;;;1.88;;
44110;SDS011;29774;52.664;5.074;2023-04-25T00:14:12;12.38;;;2.20;;
44110;SDS011;29774;52.664;5.074;2023-04-25T00:16:38;7.00;;;1.85;;
44110;SDS011;29774;52.664;5.074;2023-04-25T00:19:06;4.40;;;1.30;;
44110;SDS011;29774;52.664;5.074;2023-04-25T00:21:32;5.03;;;1.80;;
44110;SDS011;29774;52.664;5.074;2023-04-25T00:23:58;12.85;;;2.20;;
44110;SDS011;29774;52.664;5.074;2023-04-25T00:26:24;5.38;;;1.92;;
44110;SDS011;29774;52.664;5.074;2023-04-25T00:28:50;7.60;;;1.70;;
44110;SDS011;29774;52.664;5.074;2023-04-25T00:31:16;6.57;;;1.83;;
44110;SDS011;29774;52.664;5.074;2023-04-25T00:33:42;3.63;;;1.77;;
44110;SDS011;29774;52.664;5.074;2023-04-25T00:36:08;6.45;;;1.92;;
44110;SDS011;29774;52.664;5.074;2023-04-25T00:38:34;6.72;;;1.73;;
44110;SDS011;29774;52.664;5.074;2023-04-25T00:40:59;7.20;;;1.92;;
44110;SDS011;29774;52.664;5.074;2023-04-25T00:43:28;7.35;;;2.13;;
44110;SDS011;29774;52.664;5.074;2023-04-25T00:45:56;8.07;;;2.08;;
44110;SDS011;29774;52.664;5.074;2023-04-25T00:48:24;7.88;;;2.08;;
44110;SDS011;29774;52.664;5.074;2023-04-25T00:50:53;3.95;;;1.70;;
44110;SDS011;29774;52.664;5.074;2023-04-25T00:53:21;4.40;;;1.73;;
44110;SDS011;29774;52.664;5.074;2023-04-25T00:55:47;7.53;;;2.10;;
44110;SDS011;29774;52.664;5.074;2023-04-25T00:58:15;6.07;;;2.00;;
44110;SDS011;29774;52.664;5.074;2023-04-25T01:00:41;9.40;;;1.88;;
44110;SDS011;29774;52.664;5.074;2023-04-25T01:03:08;10.63;;;2.65;;
44110;SDS011;29774;52.664;5.074;2023-04-25T01:05:34;4.90;;;1.73;;
44110;SDS011;29774;52.664;5.074;2023-04-25T01:08:00;3.75;;;1.67;;
44110;SDS011;29774;52.664;5.074;2023-04-25T01:10:26;9.65;;;2.05;;
44110;SDS011;29774;52.664;5.074;2023-04-25T01:12:52;6.97;;;1.92;;
44110;SDS011;29774;52.664;5.074;2023-04-25T01:15:17;7.80;;;1.95;;
44110;SDS011;29774;52.664;5.074;2023-04-25T01:17:43;5.55;;;2.03;;
44110;SDS011;29774;52.664;5.074;2023-04-25T01:20:09;4.72;;;2.05;;
44110;SDS011;29774;52.664;5.074;2023-04-25T01:22:36;5.40;;;1.83;;
44110;SDS011;29774;52.664;5.074;2023-04-25T01:25:03;5.88;;;1.73;;
44110;SDS011;29774;52.664;5.074;2023-04-25T01:27:29;8.00;;;1.92;;
44110;SDS011;29774;52.664;5.074;2023-04-25T01:29:55;5.70;;;1.80;;
44110;SDS011;29774;52.664;5.074;2023-04-25T01:32:22;5.65;;;1.70;;
44110;SDS011;29774;52.664;5.074;2023-04-25T01:34:48;7.03;;;2.20;;
44110;SDS011;29774;52.664;5.074;2023-04-25T01:37:14;3.53;;;1.20;;
44110;SDS011;29774;52.664;5.074;2023-04-25T01:39:41;4.45;;;2.00;;
44110;SDS011;29774;52.664;5.074;2023-04-25T01:42:07;4.32;;;1.75;;
44110;SDS011;29774;52.664;5.074;2023-04-25T01:44:32;5.88;;;2.25;;
44110;SDS011;29774;52.664;5.074;2023-04-25T01:46:58;9.10;;;1.80;;
44110;SDS011;29774;52.664;5.074;2023-04-25T01:49:24;8.23;;;1.77;;
44110;SDS011;29774;52.664;5.074;2023-04-25T01:51:49;3.53;;;1.80;;
44110;SDS011;29774;52.664;5.074;2023-04-25T01:54:15;8.13;;;1.50;;
44110;SDS011;29774;52.664;5.074;2023-04-25T01:56:41;9.60;;;2.08;;
44110;SDS011;29774;52.664;5.074;2023-04-25T01:59:07;4.60;;;1.70;;
44110;SDS011;29774;52.664;5.074;2023-04-25T02:01:33;4.38;;;1.70;;
44110;SDS011;29774;52.664;5.074;2023-04-25T02:03:59;8.73;;;2.22;;
44110;SDS011;29774;52.664;5.074;2023-04-25T02:06:24;7.88;;;2.13;;
44110;SDS011;29774;52.664;5.074;2023-04-25T02:08:50;8.73;;;1.90;;
44110;SDS011;29774;52.664;5.074;2023-04-25T02:11:16;8.88;;;2.00;;
44110;SDS011;29774;52.664;5.074;2023-04-25T02:13:41;8.82;;;1.92;;
44110;SDS011;29774;52.664;5.074;2023-04-25T02:16:07;7.93;;;1.85;;
44110;SDS011;29774;52.664;5.074;2023-04-25T02:18:32;8.38;;;1.70;;
44110;SDS011;29774;52.664;5.074;2023-04-25T02:20:59;5.78;;;1.83;;
44110;SDS011;29774;52.664;5.074;2023-04-25T02:23:26;7.40;;;2.08;;
44110;SDS011;29774;52.664;5.074;2023-04-25T02:25:51;6.13;;;1.95;;
44110;SDS011;29774;52.664;5.074;2023-04-25T02:28:17;10.98;;;2.13;;
44110;SDS011;29774;52.664;5.074;2023-04-25T02:30:43;6.90;;;1.90;;
44110;SDS011;29774;52.664;5.074;2023-04-25T02:33:09;6.07;;;1.40;;
44110;SDS011;29774;52.664;5.074;2023-04-25T02:35:35;6.40;;;1.60;;
44110;SDS011;29774;52.664;5.074;2023-04-25T02:38:00;4.70;;;1.20;;
44110;SDS011;29774;52.664;5.074;2023-04-25T02:40:26;2.95;;;0.93;;
44110;SDS011;29774;52.664;5.074;2023-04-25T02:42:52;4.70;;;1.60;;
44110;SDS011;29774;52.664;5.074;2023-04-25T02:45:17;7.00;;;1.23;;
44110;SDS011;29774;52.664;5.074;2023-04-25T02:47:43;4.32;;;1.00;;
44110;SDS011;29774;52.664;5.074;2023-04-25T02:50:08;3.50;;;1.08;;
44110;SDS011;29774;52.664;5.074;2023-04-25T02:52:34;6.05;;;1.13;;
44110;SDS011;29774;52.664;5.074;2023-04-25T02:55:00;2.25;;;1.20;;
44110;SDS011;29774;52.664;5.074;2023-04-25T02:57:25;1.73;;;1.17;;
44110;SDS011;29774;52.664;5.074;2023-04-25T02:59:51;2.22;;;1.10;;
44110;SDS011;29774;52.664;5.074;2023-04-25T03:02:17;3.13;;;1.15;;
44110;SDS011;29774;52.664;5.074;2023-04-25T03:04:42;2.42;;;1.15;;
44110;SDS011;29774;52.664;5.074;2023-04-25T03:07:08;3.03;;;1.00;;
44110;SDS011;29774;52.664;5.074;2023-04-25T03:09:33;3.97;;;1.45;;
44110;SDS011;29774;52.664;5.074;2023-04-25T03:11:59;2.35;;;1.15;;
44110;SDS011;29774;52.664;5.074;2023-04-25T03:14:26;3.95;;;1.58;;
44110;SDS011;29774;52.664;5.074;2023-04-25T03:16:52;4.97;;;1.30;;
44110;SDS011;29774;52.664;5.074;2023-04-25T03:19:17;2.47;;;1.35;;
44110;SDS011;29774;52.664;5.074;2023-04-25T03:21:43;6.18;;;1.67;;
44110;SDS011;29774;52.664;5.074;2023-04-25T03:24:09;4.22;;;1.25;;
44110;SDS011;29774;52.664;5.074;2023-04-25T03:26:36;6.45;;;1.10;;
44110;SDS011;29774;52.664;5.074;2023-04-25T03:29:01;7.00;;;1.80;;
44110;SDS011;29774;52.664;5.074;2023-04-25T03:31:27;3.03;;;1.23;;
44110;SDS011;29774;52.664;5.074;2023-04-25T03:33:53;6.65;;;1.52;;
44110;SDS011;29774;52.664;5.074;2023-04-25T03:36:18;6.13;;;1.55;;
44110;SDS011;29774;52.664;5.074;2023-04-25T03:38:44;4.30;;;1.27;;
44110;SDS011;29774;52.664;5.074;2023-04-25T03:41:10;6.72;;;1.40;;
44110;SDS011;29774;52.664;5.074;2023-04-25T03:43:35;6.30;;;1.63;;
44110;SDS011;29774;52.664;5.074;2023-04-25T03:46:01;8.05;;;1.50;;
44110;SDS011;29774;52.664;5.074;2023-04-25T03:48:26;5.28;;;1.45;;
44110;SDS011;29774;52.664;5.074;2023-04-25T03:50:53;9.55;;;2.00;;
44110;SDS011;29774;52.664;5.074;2023-04-25T03:53:19;2.85;;;1.40;;
44110;SDS011;29774;52.664;5.074;2023-04-25T03:55:45;6.05;;;1.73;;
44110;SDS011;29774;52.664;5.074;2023-04-25T03:58:10;4.70;;;1.20;;
44110;SDS011;29774;52.664;5.074;2023-04-25T04:00:36;3.30;;;1.20;;
44110;SDS011;29774;52.664;5.074;2023-04-25T04:03:02;6.50;;;1.98;;
44110;SDS011;29774;52.664;5.074;2023-04-25T04:05:27;5.90;;;1.50;;
44110;SDS011;29774;52.664;5.074;2023-04-25T04:07:54;8.02;;;1.30;;
44110;SDS011;29774;52.664;5.074;2023-04-25T04:10:20;8.57;;;1.80;;
44110;SDS011;29774;52.664;5.074;2023-04-25T04:12:46;6.70;;;1.92;;
44110;SDS011;29774;52.664;5.074;2023-04-25T04:15:11;6.03;;;1.60;;
44110;SDS011;29774;52.664;5.074;2023-04-25T04:17:37;6.07;;;1.45;;
44110;SDS011;29774;52.664;5.074;2023-04-25T04:20:03;5.68;;;1.20;;
44110;SDS011;29774;52.664;5.074;2023-04-25T04:22:29;3.45;;;1.23;;
44110;SDS011;29774;52.664;5.074;2023-04-25T04:24:55;3.45;;;1.20;;
44110;SDS011;29774;52.664;5.074;2023-04-25T04:27:21;6.18;;;1.58;;
44110;SDS011;29774;52.664;5.074;2023-04-25T04:29:47;5.28;;;1.85;;
44110;SDS011;29774;52.664;5.074;2023-04-25T04:32:14;6.05;;;1.52;;
44110;SDS011;29774;52.664;5.074;2023-04-25T04:34:40;8.05;;;2.28;;
44110;SDS011;29774;52.664;5.074;2023-04-25T04:37:06;6.10;;;1.58;;
44110;SDS011;29774;52.664;5.074;2023-04-25T04:39:32;3.53;;;1.55;;
44110;SDS011;29774;52.664;5.074;2023-04-25T04:41:58;3.80;;;1.33;;
44110;SDS011;29774;52.664;5.074;2023-04-25T04:44:26;6.15;;;1.55;;
44110;SDS011;29774;52.664;5.074;2023-04-25T04:46:53;8.13;;;1.77;;
44110;SDS011;29774;52.664;5.074;2023-04-25T04:49:19;5.18;;;1.27;;
44110;SDS011;29774;52.664;5.074;2023-04-25T04:51:44;8.18;;;2.08;;
44110;SDS011;29774;52.664;5.074;2023-04-25T04:54:10;5.72;;;1.63;;
44110;SDS011;29774;52.664;5.074;2023-04-25T04:56:35;3.67;;;1.45;;
44110;SDS011;29774;52.664;5.074;2023-04-25T04:59:01;6.20;;;1.55;;
44110;SDS011;29774;52.664;5.074;2023-04-25T05:01:27;6.95;;;1.55;;
44110;SDS011;29774;52.664;5.074;2023-04-25T05:03:55;5.88;;;1.58;;
44110;SDS011;29774;52.664;5.074;2023-04-25T05:06:25;7.63;;;2.08;;
44110;SDS011;29774;52.664;5.074;2023-04-25T05:08:51;6.57;;;1.70;;
44110;SDS011;29774;52.664;5.074;2023-04-25T05:11:18;8.90;;;1.52;;
44110;SDS011;29774;52.664;5.074;2023-04-25T05:13:44;9.63;;;2.10;;
44110;SDS011;29774;52.664;5.074;2023-04-25T05:16:10;8.32;;;2.05;;
44110;SDS011;29774;52.664;5.074;2023-04-25T05:18:36;6.47;;;1.50;;
44110;SDS011;29774;52.664;5.074;2023-04-25T05:21:02;5.80;;;1.55;;
44110;SDS011;29774;52.664;5.074;2023-04-25T05:23:27;5.25;;;1.42;;
44110;SDS011;29774;52.664;5.074;2023-04-25T05:25:55;8.10;;;1.38;;
44110;SDS011;29774;52.664;5.074;2023-04-25T05:28:21;6.97;;;1.45;;
44110;SDS011;29774;52.664;5.074;2023-04-25T05:30:46;4.95;;;1.52;;
44110;SDS011;29774;52.664;5.074;2023-04-25T05:33:12;7.93;;;1.23;;
44110;SDS011;29774;52.664;5.074;2023-04-25T05:35:38;6.60;;;1.85;;
44110;SDS011;29774;52.664;5.074;2023-04-25T05:38:03;4.68;;;1.20;;
44110;SDS011;29774;52.664;5.074;2023-04-25T05:40:29;3.60;;;1.27;;
44110;SDS011;29774;52.664;5.074;2023-04-25T05:42:54;5.45;;;1.20;;
44110;SDS011;29774;52.664;5.074;2023-04-25T05:45:20;4.38;;;1.70;;
44110;SDS011;29774;52.664;5.074;2023-04-25T05:47:45;5.45;;;2.00;;
44110;SDS011;29774;52.664;5.074;2023-04-25T05:50:11;4.78;;;1.58;;
44110;SDS011;29774;52.664;5.074;2023-04-25T05:52:37;5.95;;;1.60;;
44110;SDS011;29774;52.664;5.074;2023-04-25T05:55:03;9.82;;;1.63;;
44110;SDS011;29774;52.664;5.074;2023-04-25T05:57:29;5.75;;;1.52;;
44110;SDS011;29774;52.664;5.074;2023-04-25T05:59:54;6.22;;;1.63;;
44110;SDS011;29774;52.664;5.074;2023-04-25T06:02:20;6.15;;;2.15;;
44110;SDS011;29774;52.664;5.074;2023-04-25T06:04:46;4.70;;;1.23;;
44110;SDS011;29774;52.664;5.074;2023-04-25T06:07:14;6.40;;;2.00;;
44110;SDS011;29774;52.664;5.074;2023-04-25T06:09:40;7.28;;;1.25;;
44110;SDS011;29774;52.664;5.074;2023-04-25T06:12:06;6.80;;;1.70;;
44110;SDS011;29774;52.664;5.074;2023-04-25T06:14:32;5.25;;;1.55;;
44110;SDS011;29774;52.664;5.074;2023-04-25T06:16:58;6.35;;;1.90;;
44110;SDS011;29774;52.664;5.074;2023-04-25T06:19:24;7.82;;;1.70;;
44110;SDS011;29774;52.664;5.074;2023-04-25T06:21:49;4.80;;;1.13;;
44110;SDS011;29774;52.664;5.074;2023-04-25T06:24:15;2.97;;;1.08;;
44110;SDS011;29774;52.664;5.074;2023-04-25T06:26:40;4.07;;;1.50;;
44110;SDS011;29774;52.664;5.074;2023-04-25T06:29:06;3.22;;;1.27;;
44110;SDS011;29774;52.664;5.074;2023-04-25T06:31:32;3.63;;;1.27;;
44110;SDS011;29774;52.664;5.074;2023-04-25T06:33:58;3.47;;;1.13;;
44110;SDS011;29774;52.664;5.074;2023-04-25T06:36:24;5.35;;;1.20;;
44110;SDS011;29774;52.664;5.074;2023-04-25T06:38:51;1.98;;;0.90;;
44110;SDS011;29774;52.664;5.074;2023-04-25T06:41:17;5.78;;;1.30;;
44110;SDS011;29774;52.664;5.074;2023-04-25T06:43:43;4.63;;;1.20;;
44110;SDS011;29774;52.664;5.074;2023-04-25T06:46:09;6.57;;;1.13;;
44110;SDS011;29774;52.664;5.074;2023-04-25T06:48:35;4.68;;;1.10;;
44110;SDS011;29774;52.664;5.074;2023-04-25T06:51:01;3.45;;;1.48;;
44110;SDS011;29774;52.664;5.074;2023-04-25T06:53:26;3.10;;;1.05;;
44110;SDS011;29774;52.664;5.074;2023-04-25T06:55:52;1.92;;;1.00;;
44110;SDS011;29774;52.664;5.074;2023-04-25T06:58:17;2.25;;;1.00;;
44110;SDS011;29774;52.664;5.074;2023-04-25T07:00:43;3.05;;;1.00;;
44110;SDS011;29774;52.664;5.074;2023-04-25T07:03:09;2.38;;;1.10;;
44110;SDS011;29774;52.664;5.074;2023-04-25T07:05:35;0.50;;;0.50;;
44110;SDS011;29774;52.664;5.074;2023-04-25T07:08:00;3.40;;;1.00;;
44110;SDS011;29774;52.664;5.074;2023-04-25T07:10:27;3.25;;;0.82;;
44110;SDS011;29774;52.664;5.074;2023-04-25T07:12:53;3.40;;;0.93;;
44110;SDS011;29774;52.664;5.074;2023-04-25T07:15:18;3.22;;;0.77;;
44110;SDS011;29774;52.664;5.074;2023-04-25T07:17:44;3.35;;;0.90;;
44110;SDS011;29774;52.664;5.074;2023-04-25T07:20:09;2.90;;;0.88;;
44110;SDS011;29774;52.664;5.074;2023-04-25T07:22:35;4.43;;;1.17;;
44110;SDS011;29774;52.664;5.074;2023-04-25T07:25:01;2.53;;;0.93;;
44110;SDS011;29774;52.664;5.074;2023-04-25T07:27:27;5.55;;;1.10;;
44110;SDS011;29774;52.664;5.074;2023-04-25T07:29:52;2.65;;;0.70;;
44110;SDS011;29774;52.664;5.074;2023-04-25T07:32:18;2.38;;;0.70;;
44110;SDS011;29774;52.664;5.074;2023-04-25T07:34:44;2.90;;;0.65;;
44110;SDS011;29774;52.664;5.074;2023-04-25T07:37:10;3.72;;;0.98;;
44110;SDS011;29774;52.664;5.074;2023-04-25T07:39:36;2.65;;;0.90;;
44110;SDS011;29774;52.664;5.074;2023-04-25T07:42:02;3.55;;;1.02;;
44110;SDS011;29774;52.664;5.074;2023-04-25T07:44:28;1.00;;;0.80;;
44110;SDS011;29774;52.664;5.074;2023-04-25T07:46:55;0.95;;;0.65;;
44110;SDS011;29774;52.664;5.074;2023-04-25T07:49:21;1.67;;;0.90;;
44110;SDS011;29774;52.664;5.074;2023-04-25T07:51:47;2.65;;;0.90;;
44110;SDS011;29774;52.664;5.074;2023-04-25T07:54:13;2.60;;;0.93;;
44110;SDS011;29774;52.664;5.074;2023-04-25T07:56:40;0.88;;;0.70;;
44110;SDS011;29774;52.664;5.074;2023-04-25T07:59:05;2.28;;;0.85;;
44110;SDS011;29774;52.664;5.074;2023-04-25T08:01:31;2.25;;;0.70;;
44110;SDS011;29774;52.664;5.074;2023-04-25T08:03:56;2.38;;;0.90;;
44110;SDS011;29774;52.664;5.074;2023-04-25T08:06:22;3.42;;;1.10;;
44110;SDS011;29774;52.664;5.074;2023-04-25T08:08:48;1.88;;;0.63;;
44110;SDS011;29774;52.664;5.074;2023-04-25T08:11:13;1.67;;;0.73;;
44110;SDS011;29774;52.664;5.074;2023-04-25T08:13:39;1.67;;;0.80;;
44110;SDS011;29774;52.664;5.074;2023-04-25T08:16:04;1.38;;;0.60;;
44110;SDS011;29774;52.664;5.074;2023-04-25T08:18:30;4.13;;;0.95;;
44110;SDS011;29774;52.664;5.074;2023-04-25T08:20:56;5.00;;;0.98;;
44110;SDS011;29774;52.664;5.074;2023-04-25T08:23:22;2.13;;;1.00;;
44110;SDS011;29774;52.664;5.074;2023-04-25T08:25:47;2.53;;;0.70;;
44110;SDS011;29774;52.664;5.074;2023-04-25T08:28:13;2.45;;;0.70;;
44110;SDS011;29774;52.664;5.074;2023-04-25T08:30:40;2.05;;;0.65;;
44110;SDS011;29774;52.664;5.074;2023-04-25T08:33:05;2.80;;;0.80;;
44110;SDS011;29774;52.664;5.074;2023-04-25T08:35:31;1.27;;;0.60;;
44110;SDS011;29774;52.664;5.074;2023-04-25T08:37:58;3.85;;;0.63;;
44110;SDS011;29774;52.664;5.074;2023-04-25T08:40:23;3.83;;;0.60;;
44110;SDS011;29774;52.664;5.074;2023-04-25T08:42:55;3.30;;;0.82;;
44110;SDS011;29774;52.664;5.074;2023-04-25T08:45:22;3.15;;;0.80;;
44110;SDS011;29774;52.664;5.074;2023-04-25T08:47:47;3.30;;;1.05;;
44110;SDS011;29774;52.664;5.074;2023-04-25T08:50:17;3.13;;;1.00;;
44110;SDS011;29774;52.664;5.074;2023-04-25T08:52:44;3.42;;;1.38;;
44110;SDS011;29774;52.664;5.074;2023-04-25T08:55:14;3.85;;;0.70;;
44110;SDS011;29774;52.664;5.074;2023-04-25T08:57:41;2.70;;;1.10;;
44110;SDS011;29774;52.664;5.074;2023-04-25T09:00:10;2.85;;;0.93;;
44110;SDS011;29774;52.664;5.074;2023-04-25T09:02:37;1.77;;;0.95;;
44110;SDS011;29774;52.664;5.074;2023-04-25T09:05:04;1.80;;;0.88;;
44110;SDS011;29774;52.664;5.074;2023-04-25T09:07:31;1.17;;;0.70;;
44110;SDS011;29774;52.664;5.074;2023-04-25T09:09:57;2.92;;;0.85;;
44110;SDS011;29774;52.664;5.074;2023-04-25T09:12:26;2.35;;;0.70;;
44110;SDS011;29774;52.664;5.074;2023-04-25T09:17:35;4.18;;;0.95;;
44110;SDS011;29774;52.664;5.074;2023-04-25T09:20:13;9.20;;;1.13;;
44110;SDS011;29774;52.664;5.074;2023-04-25T09:22:40;1.98;;;0.80;;
44110;SDS011;29774;52.664;5.074;2023-04-25T09:25:09;3.20;;;0.90;;
44110;SDS011;29774;52.664;5.074;2023-04-25T09:27:36;5.10;;;1.25;;
44110;SDS011;29774;52.664;5.074;2023-04-25T09:30:15;3.67;;;1.00;;
44110;SDS011;29774;52.664;5.074;2023-04-25T09:32:42;2.08;;;0.80;;
44110;SDS011;29774;52.664;5.074;2023-04-25T09:35:08;2.45;;;0.82;;
44110;SDS011;29774;52.664;5.074;2023-04-25T09:37:34;1.33;;;0.80;;
44110;SDS011;29774;52.664;5.074;2023-04-25T09:40:00;1.70;;;1.15;;
44110;SDS011;29774;52.664;5.074;2023-04-25T09:42:30;2.45;;;0.68;;
44110;SDS011;29774;52.664;5.074;2023-04-25T09:44:57;2.15;;;0.85;;
44110;SDS011;29774;52.664;5.074;2023-04-25T09:47:24;2.70;;;1.10;;
44110;SDS011;29774;52.664;5.074;2023-04-25T09:49:54;5.65;;;1.20;;
44110;SDS011;29774;52.664;5.074;2023-04-25T09:52:21;3.35;;;0.70;;
44110;SDS011;29774;52.664;5.074;2023-04-25T09:54:48;2.25;;;0.80;;
44110;SDS011;29774;52.664;5.074;2023-04-25T09:57:21;2.35;;;0.70;;
44110;SDS011;29774;52.664;5.074;2023-04-25T09:59:54;2.08;;;0.70;;
44110;SDS011;29774;52.664;5.074;2023-04-25T10:02:24;2.42;;;0.80;;
44110;SDS011;29774;52.664;5.074;2023-04-25T10:04:51;1.42;;;0.77;;
44110;SDS011;29774;52.664;5.074;2023-04-25T10:07:20;3.28;;;0.88;;
44110;SDS011;29774;52.664;5.074;2023-04-25T10:09:50;3.25;;;0.90;;
44110;SDS011;29774;52.664;5.074;2023-04-25T10:12:24;5.32;;;1.20;;
44110;SDS011;29774;52.664;5.074;2023-04-25T10:14:52;1.38;;;0.63;;
44110;SDS011;29774;52.664;5.074;2023-04-25T10:17:17;1.50;;;0.73;;
44110;SDS011;29774;52.664;5.074;2023-04-25T10:19:45;2.95;;;1.10;;
44110;SDS011;29774;52.664;5.074;2023-04-25T10:22:55;0.85;;;0.57;;
44110;SDS011;29774;52.664;5.074;2023-04-25T10:25:03;0.85;;;0.65;;
44110;SDS011;29774;52.664;5.074;2023-04-25T10:27:29;1.48;;;0.60;;
44110;SDS011;29774;52.664;5.074;2023-04-25T10:30:07;1.40;;;0.90;;
44110;SDS011;29774;52.664;5.074;2023-04-25T10:32:36;3.10;;;1.05;;
44110;SDS011;29774;52.664;5.074;2023-04-25T10:40:29;1.83;;;0.60;;
44110;SDS011;29774;52.664;5.074;2023-04-25T10:42:56;1.73;;;0.95;;
44110;SDS011;29774;52.664;5.074;2023-04-25T10:46:13;5.38;;;1.48;;
44110;SDS011;29774;52.664;5.074;2023-04-25T10:48:49;6.65;;;1.42;;
44110;SDS011;29774;52.664;5.074;2023-04-25T10:51:17;1.33;;;0.93;;
44110;SDS011;29774;52.664;5.074;2023-04-25T10:53:45;3.05;;;0.90;;
44110;SDS011;29774;52.664;5.074;2023-04-25T10:56:19;6.45;;;0.90;;
44110;SDS011;29774;52.664;5.074;2023-04-25T10:58:46;5.68;;;1.33;;
44110;SDS011;29774;52.664;5.074;2023-04-25T11:01:13;2.67;;;0.80;;
44110;SDS011;29774;52.664;5.074;2023-04-25T11:03:43;2.70;;;0.77;;
44110;SDS011;29774;52.664;5.074;2023-04-25T11:06:22;3.08;;;0.85;;
44110;SDS011;29774;52.664;5.074;2023-04-25T11:08:56;2.65;;;0.77;;
44110;SDS011;29774;52.664;5.074;2023-04-25T11:11:22;1.73;;;0.73;;
44110;SDS011;29774;52.664;5.074;2023-04-25T11:13:49;1.00;;;0.70;;
44110;SDS011;29774;52.664;5.074;2023-04-25T11:16:15;3.13;;;1.00;;
44110;SDS011;29774;52.664;5.074;2023-04-25T11:18:42;2.10;;;0.95;;
44110;SDS011;29774;52.664;5.074;2023-04-25T11:21:09;3.70;;;1.05;;
44110;SDS011;29774;52.664;5.074;2023-04-25T11:23:35;3.75;;;1.08;;
44110;SDS011;29774;52.664;5.074;2023-04-25T11:26:01;6.75;;;0.80;;
44110;SDS011;29774;52.664;5.074;2023-04-25T11:28:30;3.45;;;0.95;;
44110;SDS011;29774;52.664;5.074;2023-04-25T11:30:56;3.95;;;1.27;;
44110;SDS011;29774;52.664;5.074;2023-04-25T11:33:25;4.13;;;1.20;;
44110;SDS011;29774;52.664;5.074;2023-04-25T11:35:54;3.58;;;0.90;;
44110;SDS011;29774;52.664;5.074;2023-04-25T11:38:21;4.35;;;0.93;;
44110;SDS011;29774;52.664;5.074;2023-04-25T11:40:51;4.28;;;0.98;;
44110;SDS011;29774;52.664;5.074;2023-04-25T11:43:19;2.42;;;0.80;;
44110;SDS011;29774;52.664;5.074;2023-04-25T11:45:47;4.53;;;0.73;;
44110;SDS011;29774;52.664;5.074;2023-04-25T11:48:17;1.10;;;0.73;;
44110;SDS011;29774;52.664;5.074;2023-04-25T11:50:43;1.92;;;1.00;;
44110;SDS011;29774;52.664;5.074;2023-04-25T11:53:09;2.92;;;0.80;;
44110;SDS011;29774;52.664;5.074;2023-04-25T11:55:35;1.35;;;0.70;;
44110;SDS011;29774;52.664;5.074;2023-04-25T11:58:02;1.10;;;0.80;;
44110;SDS011;29774;52.664;5.074;2023-04-25T12:00:29;3.53;;;0.70;;
44110;SDS011;29774;52.664;5.074;2023-04-25T12:02:55;3.03;;;0.70;;
44110;SDS011;29774;52.664;5.074;2023-04-25T12:05:27;3.63;;;0.80;;
44110;SDS011;29774;52.664;5.074;2023-04-25T12:07:55;4.63;;;1.30;;
44110;SDS011;29774;52.664;5.074;2023-04-25T12:10:21;2.03;;;0.90;;
44110;SDS011;29774;52.664;5.074;2023-04-25T12:12:48;1.35;;;0.80;;
44110;SDS011;29774;52.664;5.074;2023-04-25T12:17:44;3.20;;;1.10;;
44110;SDS011;29774;52.664;5.074;2023-04-25T12:20:15;4.32;;;0.93;;
44110;SDS011;29774;52.664;5.074;2023-04-25T12:22:42;2.15;;;0.70;;
44110;SDS011;29774;52.664;5.074;2023-04-25T12:28:17;1.27;;;0.80;;
44110;SDS011;29774;52.664;5.074;2023-04-25T12:30:53;1.58;;;0.75;;
44110;SDS011;29774;52.664;5.074;2023-04-25T12:33:20;0.77;;;0.55;;
44110;SDS011;29774;52.664;5.074;2023-04-25T12:35:46;1.40;;;0.77;;
44110;SDS011;29774;52.664;5.074;2023-04-25T12:38:20;2.60;;;1.02;;
44110;SDS011;29774;52.664;5.074;2023-04-25T12:40:48;7.38;;;0.88;;
44110;SDS011;29774;52.664;5.074;2023-04-25T12:43:14;4.15;;;0.98;;
44110;SDS011;29774;52.664;5.074;2023-04-25T12:45:40;4.95;;;1.13;;
44110;SDS011;29774;52.664;5.074;2023-04-25T12:48:05;1.75;;;0.85;;
44110;SDS011;29774;52.664;5.074;2023-04-25T12:50:31;2.45;;;0.80;;
44110;SDS011;29774;52.664;5.074;2023-04-25T12:52:57;5.45;;;0.95;;
44110;SDS011;29774;52.664;5.074;2023-04-25T12:55:22;2.70;;;0.80;;
44110;SDS011;29774;52.664;5.074;2023-04-25T12:57:48;2.10;;;0.65;;
44110;SDS011;29774;52.664;5.074;2023-04-25T13:00:13;3.15;;;1.02;;
44110;SDS011;29774;52.664;5.074;2023-04-25T13:02:40;1.83;;;0.95;;
44110;SDS011;29774;52.664;5.074;2023-04-25T13:05:06;3.67;;;1.20;;
44110;SDS011;29774;52.664;5.074;2023-04-25T13:07:32;2.80;;;1.17;;
44110;SDS011;29774;52.664;5.074;2023-04-25T13:09:58;1.15;;;0.80;;
44110;SDS011;29774;52.664;5.074;2023-04-25T13:12:23;2.42;;;0.77;;
44110;SDS011;29774;52.664;5.074;2023-04-25T13:14:49;2.22;;;0.95;;
44110;SDS011;29774;52.664;5.074;2023-04-25T13:17:15;3.30;;;1.02;;
44110;SDS011;29774;52.664;5.074;2023-04-25T13:19:40;2.63;;;1.27;;
44110;SDS011;29774;52.664;5.074;2023-04-25T13:22:06;1.20;;;0.70;;
44110;SDS011;29774;52.664;5.074;2023-04-25T13:24:31;1.00;;;0.50;;
44110;SDS011;29774;52.664;5.074;2023-04-25T13:26:57;2.08;;;0.80;;
44110;SDS011;29774;52.664;5.074;2023-04-25T13:29:23;3.53;;;0.85;;
44110;SDS011;29774;52.664;5.074;2023-04-25T13:31:48;2.17;;;0.82;;
44110;SDS011;29774;52.664;5.074;2023-04-25T13:34:14;2.90;;;0.75;;
44110;SDS011;29774;52.664;5.074;2023-04-25T13:36:39;1.02;;;0.70;;
44110;SDS011;29774;52.664;5.074;2023-04-25T13:39:05;0.73;;;0.70;;
44110;SDS011;29774;52.664;5.074;2023-04-25T13:41:31;2.33;;;1.02;;
44110;SDS011;29774;52.664;5.074;2023-04-25T13:43:57;1.17;;;0.60;;
44110;SDS011;29774;52.664;5.074;2023-04-25T13:46:22;1.08;;;0.93;;
44110;SDS011;29774;52.664;5.074;2023-04-25T13:48:48;3.25;;;0.90;;
44110;SDS011;29774;52.664;5.074;2023-04-25T13:51:15;2.97;;;1.10;;
44110;SDS011;29774;52.664;5.074;2023-04-25T13:53:43;3.45;;;1.05;;
44110;SDS011;29774;52.664;5.074;2023-04-25T13:56:09;2.00;;;1.13;;
44110;SDS011;29774;52.664;5.074;2023-04-25T13:58:36;2.42;;;0.65;;
44110;SDS011;29774;52.664;5.074;2023-04-25T14:01:02;5.03;;;0.98;;
44110;SDS011;29774;52.664;5.074;2023-04-25T14:03:28;3.50;;;0.90;;
44110;SDS011;29774;52.664;5.074;2023-04-25T14:05:55;2.08;;;0.90;;
44110;SDS011;29774;52.664;5.074;2023-04-25T14:08:20;1.38;;;0.75;;
44110;SDS011;29774;52.664;5.074;2023-04-25T14:10:46;2.63;;;0.73;;
44110;SDS011;29774;52.664;5.074;2023-04-25T14:13:11;2.75;;;1.00;;
44110;SDS011;29774;52.664;5.074;2023-04-25T14:15:37;4.03;;;0.93;;
44110;SDS011;29774;52.664;5.074;2023-04-25T14:18:03;4.20;;;1.40;;
44110;SDS011;29774;52.664;5.074;2023-04-25T14:20:29;3.83;;;0.90;;
44110;SDS011;29774;52.664;5.074;2023-04-25T14:22:54;2.47;;;1.15;;
44110;SDS011;29774;52.664;5.074;2023-04-25T14:25:22;5.63;;;1.80;;
44110;SDS011;29774;52.664;5.074;2023-04-25T14:27:48;2.83;;;1.08;;
44110;SDS011;29774;52.664;5.074;2023-04-25T14:30:18;2.70;;;1.20;;
44110;SDS011;29774;52.664;5.074;2023-04-25T14:32:44;3.70;;;1.05;;
44110;SDS011;29774;52.664;5.074;2023-04-25T14:35:11;3.80;;;1.20;;
44110;SDS011;29774;52.664;5.074;2023-04-25T14:37:37;2.47;;;0.80;;
44110;SDS011;29774;52.664;5.074;2023-04-25T14:40:02;3.88;;;0.98;;
44110;SDS011;29774;52.664;5.074;2023-04-25T14:42:29;4.68;;;0.88;;
44110;SDS011;29774;52.664;5.074;2023-04-25T14:44:55;7.32;;;1.08;;
44110;SDS011;29774;52.664;5.074;2023-04-25T14:47:21;5.05;;;1.23;;
44110;SDS011;29774;52.664;5.074;2023-04-25T14:49:46;5.00;;;1.10;;
44110;SDS011;29774;52.664;5.074;2023-04-25T14:52:18;3.00;;;1.05;;
44110;SDS011;29774;52.664;5.074;2023-04-25T14:54:46;4.68;;;1.10;;
44110;SDS011;29774;52.664;5.074;2023-04-25T14:57:12;4.70;;;1.13;;
44110;SDS011;29774;52.664;5.074;2023-04-25T14:59:38;3.90;;;1.05;;